Time;durP1;ratioP1;P1;durP2;ratioP2;P2;SDS_P1;SDS_P2;PMS_P1;PMS_P2;Temp;Humidity;BMP_temperature;BMP_pressure;BME280_temperature;BME280_humidity;BME280_pressure;Samples;Min_cycle;Max_cycle;Signal;HPM_P1;HPM_P2
2023/06/03 00:02:06;;;;;;;2.40;0.90;;;;;;;;;;4996802;28;20219;-82
2023/06/03 00:04:34;;;;;;;0.90;0.73;;;;;;;;;;4997161;28;20224;-83
2023/06/03 00:06:59;;;;;;;1.27;0.93;;;;;;;;;;4911713;28;1312407;-85
2023/06/03 00:09:25;;;;;;;1.33;0.77;;;;;;;;;;4976298;28;20232;-86
2023/06/03 00:11:51;;;;;;;0.70;0.70;;;;;;;;;;5012519;28;20231;-85
2023/06/03 00:14:19;;;;;;;1.73;0.73;;;;;;;;;;4976504;28;20560;-81
2023/06/03 00:16:45;;;;;;;0.60;0.60;;;;;;;;;;5006575;28;20220;-82
2023/06/03 00:19:14;;;;;;;1.43;0.60;;;;;;;;;;5010571;28;20721;-83
2023/06/03 00:21:49;;;;;;;1.47;1.00;;;;;;;;;;4978099;28;20221;-83
2023/06/03 00:24:20;;;;;;;1.10;0.70;;;;;;;;;;4988387;28;20228;-86
2023/06/03 00:26:51;;;;;;;2.33;0.80;;;;;;;;;;4989970;28;20250;-84
2023/06/03 00:29:18;;;;;;;3.73;0.90;;;;;;;;;;4985902;28;20830;-82
2023/06/03 00:31:44;;;;;;;1.10;0.87;;;;;;;;;;4977325;28;20642;-84
2023/06/03 00:34:12;;;;;;;1.20;0.70;;;;;;;;;;4992846;28;20235;-83
2023/06/03 00:36:39;;;;;;;0.80;0.70;;;;;;;;;;4975540;28;20245;-83
2023/06/03 00:39:05;;;;;;;0.63;0.63;;;;;;;;;;4994945;28;20307;-82
2023/06/03 00:41:30;;;;;;;0.70;0.70;;;;;;;;;;4979035;28;20300;-84
2023/06/03 00:43:56;;;;;;;1.30;0.80;;;;;;;;;;5004459;28;20225;-82
2023/06/03 00:46:21;;;;;;;0.97;0.70;;;;;;;;;;4984557;28;20237;-84
2023/06/03 00:48:47;;;;;;;1.33;0.77;;;;;;;;;;4982453;28;20681;-83
2023/06/03 00:51:13;;;;;;;2.20;0.87;;;;;;;;;;4973822;28;20250;-83
2023/06/03 00:53:41;;;;;;;1.37;0.70;;;;;;;;;;5000427;28;20641;-83
2023/06/03 00:56:06;;;;;;;1.00;0.90;;;;;;;;;;4975487;28;20240;-83
2023/06/03 00:58:34;;;;;;;1.77;0.70;;;;;;;;;;4980475;28;20224;-83
2023/06/03 01:01:02;;;;;;;0.60;0.60;;;;;;;;;;4975555;28;20232;-83
2023/06/03 01:03:31;;;;;;;1.80;0.70;;;;;;;;;;4970050;28;20852;-82
2023/06/03 01:06:02;;;;;;;0.67;0.60;;;;;;;;;;4992038;28;20224;-84
2023/06/03 01:08:39;;;;;;;0.50;0.50;;;;;;;;;;5010598;28;20324;-84
2023/06/03 01:11:36;;;;;;;0.63;0.63;;;;;;;;;;5004207;28;20221;-82
2023/06/03 01:14:10;;;;;;;0.60;0.60;;;;;;;;;;4994301;28;20777;-83
2023/06/03 01:16:37;;;;;;;1.17;0.70;;;;;;;;;;4972798;28;20226;-82
2023/06/03 01:19:04;;;;;;;0.90;0.70;;;;;;;;;;4960108;28;20235;-84
2023/06/03 01:21:34;;;;;;;1.00;0.60;;;;;;;;;;4970487;28;20225;-83
2023/06/03 01:24:02;;;;;;;0.60;0.60;;;;;;;;;;4977521;28;20279;-82
2023/06/03 01:26:28;;;;;;;1.07;0.80;;;;;;;;;;5001943;28;20324;-83
2023/06/03 01:28:54;;;;;;;0.57;0.57;;;;;;;;;;4997651;28;20225;-81
2023/06/03 01:31:22;;;;;;;1.20;0.80;;;;;;;;;;4999357;28;20255;-80
2023/06/03 01:33:48;;;;;;;1.37;0.77;;;;;;;;;;4983170;28;20567;-86
2023/06/03 01:36:13;;;;;;;0.77;0.77;;;;;;;;;;4982075;28;20240;-80
2023/06/03 01:38:39;;;;;;;0.90;0.70;;;;;;;;;;4976435;28;20244;-82
2023/06/03 01:41:07;;;;;;;1.23;0.80;;;;;;;;;;4982976;28;20566;-81
2023/06/03 01:43:33;;;;;;;1.13;0.60;;;;;;;;;;4975076;28;20232;-82
2023/06/03 01:45:59;;;;;;;0.93;0.67;;;;;;;;;;4977748;28;20221;-83
2023/06/03 01:48:26;;;;;;;0.60;0.60;;;;;;;;;;4992117;28;20237;-82
2023/06/03 01:50:53;;;;;;;1.70;1.00;;;;;;;;;;4973166;28;20225;-81
2023/06/03 01:53:19;;;;;;;0.70;0.70;;;;;;;;;;4977605;28;20213;-82
2023/06/03 01:55:46;;;;;;;0.97;0.63;;;;;;;;;;4977465;28;20221;-82
2023/06/03 01:58:23;;;;;;;0.70;0.70;;;;;;;;;;4977981;28;20205;-81
2023/06/03 02:00:48;;;;;;;0.70;0.70;;;;;;;;;;4964044;28;20564;-86
2023/06/03 02:03:17;;;;;;;1.73;0.90;;;;;;;;;;4977206;28;20214;-83
2023/06/03 02:05:42;;;;;;;0.70;0.70;;;;;;;;;;4980569;28;20225;-86
2023/06/03 02:08:08;;;;;;;0.67;0.67;;;;;;;;;;4981721;28;20715;-82
2023/06/03 02:10:34;;;;;;;0.70;0.70;;;;;;;;;;4969566;28;20217;-84
2023/06/03 02:13:02;;;;;;;0.83;0.73;;;;;;;;;;5029934;28;20225;-85
2023/06/03 02:15:30;;;;;;;0.70;0.70;;;;;;;;;;4981552;28;20228;-83
2023/06/03 02:17:59;;;;;;;1.27;0.83;;;;;;;;;;5005272;28;20219;-86
2023/06/03 02:20:27;;;;;;;0.80;0.80;;;;;;;;;;5018180;28;20212;-80
2023/06/03 02:22:53;;;;;;;1.07;0.67;;;;;;;;;;5018012;28;20229;-86
2023/06/03 02:25:20;;;;;;;1.10;0.90;;;;;;;;;;4997512;28;20275;-84
2023/06/03 02:27:48;;;;;;;1.40;0.90;;;;;;;;;;5001698;28;20228;-87
2023/06/03 02:30:13;;;;;;;0.93;0.93;;;;;;;;;;4997057;28;20891;-84
2023/06/03 02:32:39;;;;;;;1.00;0.80;;;;;;;;;;4981998;28;20641;-87
2023/06/03 02:35:05;;;;;;;1.80;1.10;;;;;;;;;;4997178;28;20223;-84
2023/06/03 02:37:31;;;;;;;1.17;0.80;;;;;;;;;;4988165;28;20480;-82
2023/06/03 02:39:59;;;;;;;0.97;0.90;;;;;;;;;;4988466;28;20702;-85
2023/06/03 02:42:25;;;;;;;0.87;0.87;;;;;;;;;;5004048;28;20270;-82
2023/06/03 02:44:51;;;;;;;2.40;0.90;;;;;;;;;;5003475;28;20245;-85
2023/06/03 02:47:16;;;;;;;2.20;0.97;;;;;;;;;;5003274;28;20224;-86
2023/06/03 02:49:45;;;;;;;0.70;0.70;;;;;;;;;;4996661;28;20216;-86
2023/06/03 02:52:15;;;;;;;0.93;0.93;;;;;;;;;;4996169;28;20214;-85
2023/06/03 02:54:41;;;;;;;0.83;0.83;;;;;;;;;;4998419;28;20643;-83
2023/06/03 02:57:07;;;;;;;0.80;0.80;;;;;;;;;;5003556;28;20216;-83
2023/06/03 02:59:36;;;;;;;1.70;1.00;;;;;;;;;;4982800;28;20236;-87
2023/06/03 03:02:03;;;;;;;0.93;0.80;;;;;;;;;;4999179;28;20220;-84
2023/06/03 03:04:33;;;;;;;1.87;0.87;;;;;;;;;;4957912;28;20226;-84
2023/06/03 03:07:01;;;;;;;2.97;1.00;;;;;;;;;;4961340;28;20232;-85
2023/06/03 03:09:27;;;;;;;0.77;0.77;;;;;;;;;;4958992;28;20205;-85
2023/06/03 03:11:52;;;;;;;1.20;1.10;;;;;;;;;;4997060;28;20274;-84
2023/06/03 03:14:18;;;;;;;1.10;1.00;;;;;;;;;;4992812;28;20219;-84
2023/06/03 03:16:45;;;;;;;1.33;1.00;;;;;;;;;;4975250;28;20224;-83
2023/06/03 03:19:11;;;;;;;1.40;1.10;;;;;;;;;;4986842;28;20231;-83
2023/06/03 03:21:43;;;;;;;1.23;1.00;;;;;;;;;;4991470;28;20251;-84
2023/06/03 03:24:13;;;;;;;1.17;0.90;;;;;;;;;;4979733;28;20231;-83
2023/06/03 03:26:44;;;;;;;1.33;0.90;;;;;;;;;;4978581;28;20224;-83
2023/06/03 03:29:10;;;;;;;0.90;0.90;;;;;;;;;;4989028;28;20602;-84
2023/06/03 03:31:38;;;;;;;1.03;0.93;;;;;;;;;;4986621;28;20217;-82
2023/06/03 03:34:07;;;;;;;1.30;0.80;;;;;;;;;;5002111;28;20581;-83
2023/06/03 03:36:36;;;;;;;1.10;1.00;;;;;;;;;;5004723;28;20293;-86
2023/06/03 03:39:06;;;;;;;0.70;0.60;;;;;;;;;;4994146;28;20260;-83
2023/06/03 03:41:46;;;;;;;1.10;0.97;;;;;;;;;;4998997;28;20225;-86
2023/06/03 03:44:14;;;;;;;1.20;1.00;;;;;;;;;;4996515;28;20229;-83
2023/06/03 03:46:52;;;;;;;0.73;0.73;;;;;;;;;;4980339;28;20259;-82
2023/06/03 03:49:26;;;;;;;1.30;0.90;;;;;;;;;;4989432;28;20602;-85
2023/06/03 03:51:54;;;;;;;0.90;0.80;;;;;;;;;;4993943;28;20246;-83
2023/06/03 03:54:23;;;;;;;1.87;1.07;;;;;;;;;;4993132;28;20275;-85
2023/06/03 03:56:55;;;;;;;0.87;0.87;;;;;;;;;;4995374;28;20262;-81
2023/06/03 03:59:23;;;;;;;0.87;0.80;;;;;;;;;;4975354;28;20249;-80
2023/06/03 04:01:49;;;;;;;2.53;1.00;;;;;;;;;;4995336;28;20209;-79
2023/06/03 04:04:36;;;;;;;2.37;1.07;;;;;;;;;;4995840;28;20646;-80
2023/06/03 04:07:02;;;;;;;2.30;1.13;;;;;;;;;;4993025;28;20255;-79
2023/06/03 04:09:30;;;;;;;1.20;1.10;;;;;;;;;;4993587;28;20236;-79
2023/06/03 04:11:56;;;;;;;1.53;1.07;;;;;;;;;;5020920;28;20228;-79
2023/06/03 04:14:28;;;;;;;1.30;1.20;;;;;;;;;;4974595;28;20217;-79
2023/06/03 04:16:57;;;;;;;2.60;1.43;;;;;;;;;;4974014;28;20221;-81
2023/06/03 04:19:37;;;;;;;1.93;1.23;;;;;;;;;;4992401;28;20220;-82
2023/06/03 04:22:08;;;;;;;1.40;1.27;;;;;;;;;;4981051;28;20231;-81
2023/06/03 04:24:34;;;;;;;1.40;1.20;;;;;;;;;;4991762;28;20980;-81
2023/06/03 04:27:03;;;;;;;0.90;0.90;;;;;;;;;;5003234;28;20225;-81
2023/06/03 04:29:30;;;;;;;1.30;1.20;;;;;;;;;;4982930;28;20217;-81
2023/06/03 04:31:56;;;;;;;1.17;1.00;;;;;;;;;;4960399;28;20225;-81
2023/06/03 04:34:28;;;;;;;2.03;1.50;;;;;;;;;;4974400;28;20316;-80
2023/06/03 04:37:01;;;;;;;1.07;0.97;;;;;;;;;;5000969;28;20799;-80
2023/06/03 04:39:27;;;;;;;1.77;1.10;;;;;;;;;;5002614;28;20224;-81
2023/06/03 04:41:57;;;;;;;0.90;0.90;;;;;;;;;;4993025;28;20213;-80
2023/06/03 04:44:28;;;;;;;1.17;1.00;;;;;;;;;;4970925;28;20229;-81
2023/06/03 04:46:54;;;;;;;2.00;1.10;;;;;;;;;;4972066;28;20308;-80
2023/06/03 04:49:19;;;;;;;1.20;1.10;;;;;;;;;;4970373;28;20224;-80
2023/06/03 04:51:45;;;;;;;1.10;1.00;;;;;;;;;;4971269;28;20700;-80
2023/06/03 04:54:12;;;;;;;1.20;1.10;;;;;;;;;;4970818;28;20228;-80
2023/06/03 04:56:45;;;;;;;1.50;1.30;;;;;;;;;;4990390;28;20245;-82
2023/06/03 04:59:11;;;;;;;1.37;1.10;;;;;;;;;;4960500;28;20221;-82
2023/06/03 05:01:48;;;;;;;1.13;1.00;;;;;;;;;;4995204;28;20217;-81
2023/06/03 05:04:19;;;;;;;1.10;1.00;;;;;;;;;;4992951;28;20297;-82
2023/06/03 05:06:48;;;;;;;0.90;0.90;;;;;;;;;;4999155;28;20225;-81
2023/06/03 05:09:15;;;;;;;1.00;0.90;;;;;;;;;;5024080;28;21097;-81
2023/06/03 05:11:43;;;;;;;1.73;1.00;;;;;;;;;;5009263;28;20209;-81
2023/06/03 05:14:09;;;;;;;1.10;1.00;;;;;;;;;;4986396;28;20256;-82
2023/06/03 05:16:35;;;;;;;2.80;1.00;;;;;;;;;;4989823;28;20225;-79
2023/06/03 05:19:01;;;;;;;1.00;0.90;;;;;;;;;;4994903;28;20221;-79
2023/06/03 05:21:28;;;;;;;1.57;1.00;;;;;;;;;;4965519;28;20260;-79
2023/06/03 05:23:55;;;;;;;0.87;0.87;;;;;;;;;;4983664;28;20225;-79
2023/06/03 05:26:22;;;;;;;1.00;1.00;;;;;;;;;;4997129;28;20218;-79
2023/06/03 05:28:51;;;;;;;1.10;0.97;;;;;;;;;;5021357;28;20236;-80
2023/06/03 05:31:17;;;;;;;1.47;1.00;;;;;;;;;;5015887;28;20229;-79
2023/06/03 05:33:43;;;;;;;1.27;0.90;;;;;;;;;;4977940;28;20217;-80
2023/06/03 05:36:16;;;;;;;0.70;0.70;;;;;;;;;;4992894;23;20322;-73
2023/06/03 05:38:42;;;;;;;1.00;0.80;;;;;;;;;;5024283;28;20265;-74
2023/06/03 05:41:10;;;;;;;1.20;0.73;;;;;;;;;;5014052;28;20318;-74
2023/06/03 05:43:39;;;;;;;1.27;0.80;;;;;;;;;;5031280;28;20592;-74
2023/06/03 05:46:04;;;;;;;1.07;0.80;;;;;;;;;;5029771;28;20211;-74
2023/06/03 05:48:33;;;;;;;0.90;0.80;;;;;;;;;;5031134;28;20231;-74
2023/06/03 05:51:03;;;;;;;0.70;0.70;;;;;;;;;;5016078;28;20232;-75
2023/06/03 05:53:30;;;;;;;0.70;0.70;;;;;;;;;;4997489;28;20220;-74
2023/06/03 05:55:59;;;;;;;0.77;0.63;;;;;;;;;;5015694;28;20273;-74
2023/06/03 05:58:26;;;;;;;0.80;0.80;;;;;;;;;;5014599;28;20215;-75
2023/06/03 06:00:55;;;;;;;0.90;0.70;;;;;;;;;;5015258;28;20216;-74
2023/06/03 06:03:21;;;;;;;0.93;0.70;;;;;;;;;;5014275;28;20219;-73
2023/06/03 06:05:49;;;;;;;1.13;0.80;;;;;;;;;;5013890;28;20302;-74
2023/06/03 06:08:19;;;;;;;0.57;0.57;;;;;;;;;;5028684;28;20717;-75
2023/06/03 06:10:50;;;;;;;0.90;0.80;;;;;;;;;;5015410;28;20223;-75
2023/06/03 06:13:16;;;;;;;1.37;0.67;;;;;;;;;;5044911;23;20307;-89
2023/06/03 06:16:00;;;;;;;1.40;0.60;;;;;;;;;;4975589;28;20225;-88
2023/06/03 06:18:26;;;;;;;2.10;0.60;;;;;;;;;;4993815;28;20227;-89
2023/06/03 06:20:52;;;;;;;0.53;0.53;;;;;;;;;;4978892;28;20275;-87
2023/06/03 06:23:21;;;;;;;0.60;0.60;;;;;;;;;;4976531;28;20738;-87
2023/06/03 06:25:53;;;;;;;0.60;0.60;;;;;;;;;;4979521;28;20224;-87
2023/06/03 06:28:21;;;;;;;2.53;0.90;;;;;;;;;;4981816;28;20363;-86
2023/06/03 06:30:52;;;;;;;0.90;0.70;;;;;;;;;;4969085;28;20220;-88
2023/06/03 06:33:17;;;;;;;0.70;0.70;;;;;;;;;;4988172;28;20237;-91
2023/06/03 06:35:44;;;;;;;0.70;0.70;;;;;;;;;;4982302;28;20231;-89
2023/06/03 06:38:10;;;;;;;0.68;0.52;;;;;;;;;;5000274;28;20711;-88
2023/06/03 06:40:40;;;;;;;0.90;0.90;;;;;;;;;;4979309;28;20224;-89
2023/06/03 06:43:25;;;;;;;0.60;0.60;;;;;;;;;;4985300;28;20681;-88
2023/06/03 06:46:01;;;;;;;1.75;0.60;;;;;;;;;;4969418;28;20218;-89
2023/06/03 06:48:33;;;;;;;0.75;0.65;;;;;;;;;;4965382;28;20271;-89
2023/06/03 06:51:01;;;;;;;1.25;0.70;;;;;;;;;;5005510;28;20218;-86
2023/06/03 06:53:34;;;;;;;0.90;0.60;;;;;;;;;;4981420;28;20302;-87
2023/06/03 06:56:09;;;;;;;1.63;1.52;;;;;;;;;;4961194;28;20583;-87
2023/06/03 06:59:07;;;;;;;0.80;0.80;;;;;;;;;;4985747;28;20261;-87
2023/06/03 07:01:35;;;;;;;1.38;0.80;;;;;;;;;;4971219;28;20598;-88
2023/06/03 07:04:01;;;;;;;0.60;0.60;;;;;;;;;;4981588;28;20721;-88
2023/06/03 07:06:27;;;;;;;0.60;0.60;;;;;;;;;;4984516;28;20221;-88
2023/06/03 07:09:00;;;;;;;1.58;0.60;;;;;;;;;;4992293;28;20262;-88
2023/06/03 07:11:27;;;;;;;0.63;0.60;;;;;;;;;;4988483;28;20217;-90
2023/06/03 07:13:56;;;;;;;0.73;0.70;;;;;;;;;;4993537;28;20216;-88
2023/06/03 07:16:24;;;;;;;1.95;0.70;;;;;;;;;;4990350;28;20221;-85
2023/06/03 07:18:53;;;;;;;0.60;0.60;;;;;;;;;;4986674;28;20300;-85
2023/06/03 07:21:25;;;;;;;0.63;0.63;;;;;;;;;;4969157;28;20229;-86
2023/06/03 07:23:54;;;;;;;1.00;0.60;;;;;;;;;;4988842;28;20285;-88
2023/06/03 07:26:21;;;;;;;0.60;0.60;;;;;;;;;;4973991;28;20224;-88
2023/06/03 07:28:49;;;;;;;1.23;0.77;;;;;;;;;;4984330;28;20311;-86
2023/06/03 07:31:15;;;;;;;1.15;0.70;;;;;;;;;;4985087;28;20233;-87
2023/06/03 07:33:54;;;;;;;2.13;0.68;;;;;;;;;;4977115;28;20232;-87
2023/06/03 07:36:26;;;;;;;1.63;0.70;;;;;;;;;;4991809;28;20231;-86
2023/06/03 07:39:08;;;;;;;0.63;0.63;;;;;;;;;;4975385;28;20227;-86
2023/06/03 07:41:57;;;;;;;0.77;0.55;;;;;;;;;;5006085;28;20240;-86
2023/06/03 07:44:44;;;;;;;1.27;0.60;;;;;;;;;;4958704;28;20229;-90
2023/06/03 07:47:16;;;;;;;0.82;0.60;;;;;;;;;;4972575;28;20240;-91
2023/06/03 07:49:45;;;;;;;0.82;0.70;;;;;;;;;;4966975;28;20245;-89
2023/06/03 07:52:20;;;;;;;0.80;0.60;;;;;;;;;;4964400;28;20214;-91
2023/06/03 07:54:48;;;;;;;0.60;0.60;;;;;;;;;;5018056;23;20309;-80
2023/06/03 07:57:14;;;;;;;2.67;0.60;;;;;;;;;;4981325;28;20284;-80
2023/06/03 07:59:50;;;;;;;0.60;0.60;;;;;;;;;;4994755;28;20216;-78
2023/06/03 08:02:18;;;;;;;0.65;0.60;;;;;;;;;;4992594;28;20250;-79
2023/06/03 08:04:44;;;;;;;1.00;0.70;;;;;;;;;;4978872;28;20224;-78
2023/06/03 08:07:09;;;;;;;0.60;0.60;;;;;;;;;;4999137;28;20228;-78
2023/06/03 08:09:36;;;;;;;0.90;0.60;;;;;;;;;;5004196;28;20229;-79
2023/06/03 08:12:06;;;;;;;0.60;0.60;;;;;;;;;;5006537;28;20208;-79
2023/06/03 08:14:33;;;;;;;0.60;0.50;;;;;;;;;;4994375;28;20452;-80
2023/06/03 08:17:10;;;;;;;0.50;0.50;;;;;;;;;;5003695;28;20236;-79
2023/06/03 08:19:36;;;;;;;0.90;0.70;;;;;;;;;;5005827;28;20224;-80
2023/06/03 08:22:03;;;;;;;0.70;0.50;;;;;;;;;;4974678;28;20208;-78
2023/06/03 08:24:28;;;;;;;0.88;0.60;;;;;;;;;;4985382;28;20232;-79
2023/06/03 08:26:54;;;;;;;2.05;1.00;;;;;;;;;;4994606;28;20587;-79
2023/06/03 08:29:21;;;;;;;0.52;0.50;;;;;;;;;;5012754;28;21105;-78
2023/06/03 08:31:49;;;;;;;0.60;0.60;;;;;;;;;;5004723;28;20228;-80
2023/06/03 08:34:15;;;;;;;0.60;0.50;;;;;;;;;;5015119;28;20592;-80
2023/06/03 08:36:40;;;;;;;0.90;0.60;;;;;;;;;;5002966;28;20235;-79
2023/06/03 08:39:07;;;;;;;0.73;0.60;;;;;;;;;;5002721;28;20213;-80
2023/06/03 08:41:39;;;;;;;1.52;0.52;;;;;;;;;;5005768;28;20224;-78
2023/06/03 08:44:21;;;;;;;0.47;0.47;;;;;;;;;;5011060;28;20212;-79
2023/06/03 08:46:54;;;;;;;0.60;0.40;;;;;;;;;;4995432;28;20232;-79
2023/06/03 08:49:25;;;;;;;0.40;0.40;;;;;;;;;;5014257;28;20239;-80
2023/06/03 08:51:53;;;;;;;1.23;0.52;;;;;;;;;;5015796;28;20216;-79
2023/06/03 08:54:21;;;;;;;0.40;0.40;;;;;;;;;;5009632;28;20220;-80
2023/06/03 08:57:06;;;;;;;0.35;0.30;;;;;;;;;;4969673;28;20288;-77
2023/06/03 08:59:32;;;;;;;0.55;0.40;;;;;;;;;;4997038;28;20223;-81
2023/06/03 09:01:57;;;;;;;0.52;0.52;;;;;;;;;;4989979;28;20219;-79
2023/06/03 09:04:23;;;;;;;0.68;0.50;;;;;;;;;;4989014;28;20612;-80
2023/06/03 09:06:49;;;;;;;0.90;0.43;;;;;;;;;;4992020;28;20250;-79
2023/06/03 09:09:14;;;;;;;0.73;0.50;;;;;;;;;;5019904;28;20225;-78
2023/06/03 09:11:45;;;;;;;0.40;0.40;;;;;;;;;;5005345;28;20718;-79
2023/06/03 09:14:10;;;;;;;0.88;0.57;;;;;;;;;;4993967;28;20246;-79
2023/06/03 09:16:36;;;;;;;0.40;0.40;;;;;;;;;;5007436;28;20228;-79
2023/06/03 09:19:02;;;;;;;0.50;0.50;;;;;;;;;;5031694;28;20220;-79
2023/06/03 09:21:28;;;;;;;0.55;0.45;;;;;;;;;;5011771;28;20252;-80
2023/06/03 09:23:54;;;;;;;2.42;0.50;;;;;;;;;;4989552;28;20221;-78
2023/06/03 09:26:21;;;;;;;1.08;0.57;;;;;;;;;;5003879;28;20221;-79
2023/06/03 09:28:56;;;;;;;1.35;0.40;;;;;;;;;;4997368;28;20283;-79
2023/06/03 09:31:22;;;;;;;1.77;0.60;;;;;;;;;;5006354;28;20216;-80
2023/06/03 09:33:48;;;;;;;0.50;0.50;;;;;;;;;;4996992;28;20235;-80
2023/06/03 09:36:15;;;;;;;0.43;0.43;;;;;;;;;;5018364;28;20248;-81
2023/06/03 09:38:50;;;;;;;0.52;0.50;;;;;;;;;;5009685;28;20234;-81
2023/06/03 09:41:19;;;;;;;0.40;0.40;;;;;;;;;;5012999;28;20255;-80
2023/06/03 09:44:10;;;;;;;0.47;0.47;;;;;;;;;;4998366;28;20610;-80
2023/06/03 09:46:35;;;;;;;0.73;0.73;;;;;;;;;;5025391;28;20251;-79
2023/06/03 09:49:09;;;;;;;0.95;0.50;;;;;;;;;;4996677;28;20327;-81
2023/06/03 09:51:47;;;;;;;0.52;0.52;;;;;;;;;;5025008;28;20239;-79
2023/06/03 09:54:16;;;;;;;0.50;0.50;;;;;;;;;;5023887;28;20227;-79
2023/06/03 09:56:42;;;;;;;0.40;0.40;;;;;;;;;;5009840;28;20232;-81
2023/06/03 09:59:14;;;;;;;0.90;0.60;;;;;;;;;;5002070;28;20221;-79
2023/06/03 10:01:47;;;;;;;0.95;0.70;;;;;;;;;;5026403;28;20234;-79
2023/06/03 10:04:22;;;;;;;0.55;0.55;;;;;;;;;;5021550;28;20262;-81
2023/06/03 10:07:16;;;;;;;0.80;0.50;;;;;;;;;;4997762;28;20230;-80
2023/06/03 10:09:46;;;;;;;0.55;0.55;;;;;;;;;;5024843;28;20224;-81
2023/06/03 10:12:13;;;;;;;0.60;0.60;;;;;;;;;;4991188;28;20228;-79
2023/06/03 10:14:48;;;;;;;0.95;0.63;;;;;;;;;;4997344;28;20761;-79
2023/06/03 10:17:14;;;;;;;0.77;0.50;;;;;;;;;;5008839;28;20311;-77
2023/06/03 10:19:41;;;;;;;0.82;0.60;;;;;;;;;;4995859;28;20219;-79
2023/06/03 10:22:10;;;;;;;0.65;0.55;;;;;;;;;;5009752;28;20220;-77
2023/06/03 10:24:45;;;;;;;1.33;0.70;;;;;;;;;;4995961;28;20220;-78
2023/06/03 10:27:16;;;;;;;0.93;0.60;;;;;;;;;;4997649;28;20696;-79
2023/06/03 10:29:42;;;;;;;0.45;0.45;;;;;;;;;;5010512;28;20252;-78
2023/06/03 10:32:17;;;;;;;0.60;0.50;;;;;;;;;;4980829;28;20238;-80
2023/06/03 10:34:43;;;;;;;2.70;0.70;;;;;;;;;;5007180;28;20734;-78
2023/06/03 10:37:15;;;;;;;0.52;0.52;;;;;;;;;;5010537;28;20896;-78
2023/06/03 10:39:44;;;;;;;0.90;0.60;;;;;;;;;;4979488;28;20220;-79
2023/06/03 10:42:13;;;;;;;0.40;0.40;;;;;;;;;;4994171;28;20595;-78
2023/06/03 10:44:38;;;;;;;0.40;0.40;;;;;;;;;;5005014;28;20290;-79
2023/06/03 10:47:15;;;;;;;0.70;0.60;;;;;;;;;;4994387;28;20231;-78
2023/06/03 10:49:50;;;;;;;0.85;0.60;;;;;;;;;;5007661;28;20256;-78
2023/06/03 10:52:27;;;;;;;0.60;0.50;;;;;;;;;;5034253;28;20220;-80
2023/06/03 10:55:38;;;;;;;0.50;0.50;;;;;;;;;;5019221;28;20219;-79
2023/06/03 10:58:08;;;;;;;0.55;0.43;;;;;;;;;;4997290;28;20277;-80
2023/06/03 11:00:53;;;;;;;0.82;0.50;;;;;;;;;;5010587;28;20209;-79
2023/06/03 11:03:21;;;;;;;1.00;0.57;;;;;;;;;;5021153;28;20220;-79
2023/06/03 11:05:49;;;;;;;0.75;0.57;;;;;;;;;;5000732;28;20248;-82
2023/06/03 11:08:53;;;;;;;0.60;0.60;;;;;;;;;;5014234;28;20314;-81
2023/06/03 11:11:41;;;;;;;0.93;0.60;;;;;;;;;;5023092;28;20220;-81
2023/06/03 11:14:34;;;;;;;0.50;0.50;;;;;;;;;;5018981;28;20231;-78
2023/06/03 11:16:59;;;;;;;0.40;0.40;;;;;;;;;;4993307;28;20283;-79
2023/06/03 11:19:31;;;;;;;1.65;0.60;;;;;;;;;;5028363;28;20231;-79
2023/06/03 11:22:09;;;;;;;0.60;0.60;;;;;;;;;;5015633;28;20225;-80
2023/06/03 11:24:38;;;;;;;0.40;0.40;;;;;;;;;;4980270;28;20224;-79
2023/06/03 11:27:10;;;;;;;0.60;0.60;;;;;;;;;;5038659;28;20221;-80
2023/06/03 11:29:56;;;;;;;1.15;0.60;;;;;;;;;;5012589;28;20240;-80
2023/06/03 11:32:27;;;;;;;0.60;0.60;;;;;;;;;;5011974;28;20227;-80
2023/06/03 11:34:58;;;;;;;0.55;0.50;;;;;;;;;;5032113;28;20313;-79
2023/06/03 11:37:49;;;;;;;0.50;0.50;;;;;;;;;;5028464;28;20266;-81
2023/06/03 11:40:19;;;;;;;0.73;0.40;;;;;;;;;;5033240;28;20232;-79
2023/06/03 11:42:47;;;;;;;0.50;0.50;;;;;;;;;;4986770;28;20429;-79
2023/06/03 11:45:19;;;;;;;0.50;0.50;;;;;;;;;;5025674;28;20254;-80
2023/06/03 11:47:55;;;;;;;0.75;0.70;;;;;;;;;;5023805;28;20225;-78
2023/06/03 11:50:30;;;;;;;0.50;0.50;;;;;;;;;;5000225;28;20216;-80
2023/06/03 11:52:55;;;;;;;0.60;0.60;;;;;;;;;;4985990;28;20787;-79
2023/06/03 11:55:31;;;;;;;0.55;0.52;;;;;;;;;;5004371;28;20233;-80
2023/06/03 11:58:10;;;;;;;0.85;0.65;;;;;;;;;;4995769;28;20269;-79
2023/06/03 12:00:38;;;;;;;0.75;0.50;;;;;;;;;;5005609;28;20229;-80
2023/06/03 12:03:10;;;;;;;0.60;0.60;;;;;;;;;;4988091;28;20582;-79
2023/06/03 12:05:35;;;;;;;0.40;0.40;;;;;;;;;;4999407;28;20339;-79
2023/06/03 12:08:01;;;;;;;0.50;0.50;;;;;;;;;;4994134;28;20237;-80
2023/06/03 12:10:39;;;;;;;1.40;0.60;;;;;;;;;;5000282;28;20227;-77
2023/06/03 12:13:05;;;;;;;0.50;0.50;;;;;;;;;;4979761;28;20213;-82
2023/06/03 12:15:36;;;;;;;1.83;0.60;;;;;;;;;;5005564;28;20212;-80
2023/06/03 12:18:05;;;;;;;0.52;0.50;;;;;;;;;;5028378;28;20240;-80
2023/06/03 12:20:31;;;;;;;0.93;0.65;;;;;;;;;;5023088;28;20307;-79
2023/06/03 12:23:00;;;;;;;0.98;0.60;;;;;;;;;;4974811;28;20227;-82
2023/06/03 12:25:26;;;;;;;1.70;0.47;;;;;;;;;;5024255;28;20267;-80
2023/06/03 12:27:51;;;;;;;0.50;0.50;;;;;;;;;;4997810;28;20240;-80
2023/06/03 12:30:30;;;;;;;0.52;0.52;;;;;;;;;;5002878;28;20224;-81
2023/06/03 12:32:58;;;;;;;0.65;0.60;;;;;;;;;;4997814;28;20233;-79
2023/06/03 12:35:25;;;;;;;0.75;0.50;;;;;;;;;;4990397;28;20233;-79
2023/06/03 12:38:07;;;;;;;0.50;0.50;;;;;;;;;;5015307;28;21698;-80
2023/06/03 12:40:42;;;;;;;0.50;0.50;;;;;;;;;;4991351;28;20384;-79
2023/06/03 12:43:17;;;;;;;0.60;0.60;;;;;;;;;;5007350;28;20212;-78
2023/06/03 12:45:43;;;;;;;2.67;0.50;;;;;;;;;;5007407;28;20227;-78
2023/06/03 12:48:08;;;;;;;1.00;0.60;;;;;;;;;;5010740;28;20228;-81
2023/06/03 12:50:35;;;;;;;0.57;0.57;;;;;;;;;;5012623;28;20224;-80
2023/06/03 12:53:18;;;;;;;0.65;0.50;;;;;;;;;;5003721;28;20224;-78
2023/06/03 12:55:44;;;;;;;0.60;0.60;;;;;;;;;;5035060;28;20228;-80
2023/06/03 12:58:12;;;;;;;0.60;0.60;;;;;;;;;;5009159;28;20217;-79
2023/06/03 13:00:37;;;;;;;2.75;0.70;;;;;;;;;;5026030;28;20590;-79
2023/06/03 13:03:03;;;;;;;0.98;0.50;;;;;;;;;;5024239;28;20284;-80
2023/06/03 13:05:28;;;;;;;0.60;0.60;;;;;;;;;;5006561;28;20224;-79
2023/06/03 13:07:56;;;;;;;0.60;0.60;;;;;;;;;;5018379;28;20323;-79
2023/06/03 13:10:24;;;;;;;1.30;0.60;;;;;;;;;;5020172;28;20278;-79
2023/06/03 13:12:50;;;;;;;0.63;0.50;;;;;;;;;;4993391;28;20244;-79
2023/06/03 13:15:16;;;;;;;1.38;0.70;;;;;;;;;;4991697;28;20704;-79
2023/06/03 13:17:42;;;;;;;0.70;0.70;;;;;;;;;;4986176;28;20588;-78
2023/06/03 13:20:11;;;;;;;0.60;0.50;;;;;;;;;;5001740;28;20221;-80
2023/06/03 13:22:40;;;;;;;0.90;0.75;;;;;;;;;;5002917;28;20287;-81
2023/06/03 13:25:06;;;;;;;0.70;0.70;;;;;;;;;;5010296;28;20727;-79
2023/06/03 13:27:32;;;;;;;1.23;0.60;;;;;;;;;;4992802;28;20228;-80
2023/06/03 13:30:00;;;;;;;2.00;0.70;;;;;;;;;;5010346;28;20276;-79
2023/06/03 13:32:26;;;;;;;0.45;0.40;;;;;;;;;;5009619;28;20227;-80
2023/06/03 13:34:59;;;;;;;0.50;0.50;;;;;;;;;;4992505;28;20216;-80
2023/06/03 13:37:27;;;;;;;0.50;0.50;;;;;;;;;;4987274;28;20701;-81
2023/06/03 13:39:53;;;;;;;0.98;0.70;;;;;;;;;;4989870;28;20205;-80
2023/06/03 13:42:19;;;;;;;0.93;0.60;;;;;;;;;;4998167;28;20251;-80
2023/06/03 13:44:45;;;;;;;0.50;0.50;;;;;;;;;;5012622;28;20244;-81
2023/06/03 13:47:13;;;;;;;0.80;0.60;;;;;;;;;;5002643;28;20213;-79
2023/06/03 13:49:38;;;;;;;0.40;0.40;;;;;;;;;;5026726;28;20247;-79
2023/06/03 13:52:04;;;;;;;0.50;0.50;;;;;;;;;;5020140;28;20232;-79
2023/06/03 13:54:32;;;;;;;0.57;0.57;;;;;;;;;;4993759;28;20224;-80
2023/06/03 13:56:58;;;;;;;1.08;0.60;;;;;;;;;;5008382;28;20225;-80
2023/06/03 13:59:25;;;;;;;0.88;0.47;;;;;;;;;;5008964;28;20216;-79
2023/06/03 14:01:51;;;;;;;0.40;0.40;;;;;;;;;;5000169;28;20223;-80
2023/06/03 14:04:17;;;;;;;0.50;0.50;;;;;;;;;;5003485;28;20221;-80
2023/06/03 14:06:43;;;;;;;0.50;0.50;;;;;;;;;;5017632;28;20224;-80
2023/06/03 14:09:10;;;;;;;0.70;0.50;;;;;;;;;;5037405;28;20228;-78
2023/06/03 14:11:36;;;;;;;0.60;0.52;;;;;;;;;;5011794;28;20227;-81
2023/06/03 14:14:02;;;;;;;1.45;0.70;;;;;;;;;;4996767;28;20240;-80
2023/06/03 14:16:27;;;;;;;0.63;0.50;;;;;;;;;;5014582;28;20224;-79
2023/06/03 14:18:54;;;;;;;0.80;0.60;;;;;;;;;;5004463;28;20242;-78
2023/06/03 14:21:19;;;;;;;1.58;0.77;;;;;;;;;;4995048;28;20278;-80
2023/06/03 14:23:47;;;;;;;0.40;0.40;;;;;;;;;;4997093;28;20221;-79
2023/06/03 14:26:12;;;;;;;0.60;0.60;;;;;;;;;;5005912;28;20246;-80
2023/06/03 14:28:39;;;;;;;1.52;0.50;;;;;;;;;;5007341;28;20234;-80
2023/06/03 14:31:07;;;;;;;0.82;0.60;;;;;;;;;;4993648;28;20216;-80
2023/06/03 14:33:33;;;;;;;0.50;0.50;;;;;;;;;;4992834;28;20246;-80
2023/06/03 14:36:01;;;;;;;1.02;0.50;;;;;;;;;;4995696;28;20224;-78
2023/06/03 14:38:27;;;;;;;0.50;0.50;;;;;;;;;;5005263;28;20255;-79
2023/06/03 14:40:52;;;;;;;0.60;0.60;;;;;;;;;;5020675;28;20297;-82
2023/06/03 14:43:24;;;;;;;0.50;0.50;;;;;;;;;;5004857;28;20216;-81
2023/06/03 14:45:50;;;;;;;0.40;0.40;;;;;;;;;;4980262;28;20228;-80
2023/06/03 14:48:15;;;;;;;0.60;0.60;;;;;;;;;;5006162;28;20224;-79
2023/06/03 14:50:41;;;;;;;0.50;0.50;;;;;;;;;;5001972;28;20224;-78
2023/06/03 14:53:06;;;;;;;0.60;0.60;;;;;;;;;;4989442;28;20216;-80
2023/06/03 14:55:32;;;;;;;2.95;0.73;;;;;;;;;;5012428;28;20725;-83
2023/06/03 14:57:57;;;;;;;0.55;0.50;;;;;;;;;;5000709;28;20220;-80